sensor_id;sensor_type;location;lat;lon;timestamp;P1;durP1;ratioP1;P2;durP2;ratioP2
59607;SDS011;45426;44.726;10.390;2023-02-15T00:00:11;34.78;;;12.52;;
59607;SDS011;45426;44.726;10.390;2023-02-15T00:02:37;38.30;;;13.00;;
59607;SDS011;45426;44.726;10.390;2023-02-15T00:05:03;39.08;;;13.50;;
59607;SDS011;45426;44.726;10.390;2023-02-15T00:07:29;37.97;;;11.90;;
59607;SDS011;45426;44.726;10.390;2023-02-15T00:09:54;34.95;;;11.80;;
59607;SDS011;45426;44.726;10.390;2023-02-15T00:12:20;35.00;;;11.73;;
59607;SDS011;45426;44.726;10.390;2023-02-15T00:14:45;31.23;;;10.77;;
59607;SDS011;45426;44.726;10.390;2023-02-15T00:17:12;30.55;;;10.32;;
59607;SDS011;45426;44.726;10.390;2023-02-15T00:19:38;30.40;;;10.80;;
59607;SDS011;45426;44.726;10.390;2023-02-15T00:22:04;32.60;;;11.27;;
59607;SDS011;45426;44.726;10.390;2023-02-15T00:24:30;29.55;;;10.77;;
59607;SDS011;45426;44.726;10.390;2023-02-15T00:26:55;36.70;;;11.65;;
59607;SDS011;45426;44.726;10.390;2023-02-15T00:29:21;35.70;;;11.02;;
59607;SDS011;45426;44.726;10.390;2023-02-15T00:31:47;37.63;;;12.15;;
59607;SDS011;45426;44.726;10.390;2023-02-15T00:34:17;32.30;;;10.68;;
59607;SDS011;45426;44.726;10.390;2023-02-15T00:36:47;30.67;;;10.43;;
59607;SDS011;45426;44.726;10.390;2023-02-15T00:39:13;32.85;;;11.20;;
59607;SDS011;45426;44.726;10.390;2023-02-15T00:41:42;33.97;;;11.30;;
59607;SDS011;45426;44.726;10.390;2023-02-15T00:44:08;29.83;;;10.57;;
59607;SDS011;45426;44.726;10.390;2023-02-15T00:46:34;28.30;;;9.95;;
59607;SDS011;45426;44.726;10.390;2023-02-15T00:48:59;27.25;;;9.48;;
59607;SDS011;45426;44.726;10.390;2023-02-15T00:51:25;26.08;;;9.13;;
59607;SDS011;45426;44.726;10.390;2023-02-15T00:53:51;27.73;;;8.18;;
59607;SDS011;45426;44.726;10.390;2023-02-15T00:56:16;23.65;;;8.40;;
59607;SDS011;45426;44.726;10.390;2023-02-15T00:58:42;22.83;;;8.32;;
59607;SDS011;45426;44.726;10.390;2023-02-15T01:01:09;24.17;;;8.32;;
59607;SDS011;45426;44.726;10.390;2023-02-15T01:03:37;22.17;;;8.43;;
59607;SDS011;45426;44.726;10.390;2023-02-15T01:06:03;23.05;;;8.15;;
59607;SDS011;45426;44.726;10.390;2023-02-15T01:08:29;21.88;;;8.02;;
59607;SDS011;45426;44.726;10.390;2023-02-15T01:10:56;22.40;;;7.88;;
59607;SDS011;45426;44.726;10.390;2023-02-15T01:13:21;21.38;;;8.05;;
59607;SDS011;45426;44.726;10.390;2023-02-15T01:15:53;24.23;;;8.07;;
59607;SDS011;45426;44.726;10.390;2023-02-15T01:18:19;23.42;;;8.05;;
59607;SDS011;45426;44.726;10.390;2023-02-15T01:20:45;22.73;;;8.70;;
59607;SDS011;45426;44.726;10.390;2023-02-15T01:23:12;23.50;;;7.82;;
59607;SDS011;45426;44.726;10.390;2023-02-15T01:25:38;21.17;;;7.75;;
59607;SDS011;45426;44.726;10.390;2023-02-15T01:28:03;20.80;;;7.47;;
59607;SDS011;45426;44.726;10.390;2023-02-15T01:30:29;24.20;;;8.23;;
59607;SDS011;45426;44.726;10.390;2023-02-15T01:32:54;26.88;;;9.45;;
59607;SDS011;45426;44.726;10.390;2023-02-15T01:35:20;26.38;;;10.02;;
59607;SDS011;45426;44.726;10.390;2023-02-15T01:37:45;25.98;;;9.15;;
59607;SDS011;45426;44.726;10.390;2023-02-15T01:40:15;27.75;;;10.20;;
59607;SDS011;45426;44.726;10.390;2023-02-15T01:42:42;31.13;;;10.07;;
59607;SDS011;45426;44.726;10.390;2023-02-15T01:45:18;28.40;;;10.35;;
59607;SDS011;45426;44.726;10.390;2023-02-15T01:47:52;29.83;;;10.10;;
59607;SDS011;45426;44.726;10.390;2023-02-15T01:52:53;32.92;;;11.25;;
59607;SDS011;45426;44.726;10.390;2023-02-15T01:57:54;30.45;;;10.63;;
59607;SDS011;45426;44.726;10.390;2023-02-15T02:00:20;32.00;;;11.27;;
59607;SDS011;45426;44.726;10.390;2023-02-15T02:02:47;33.88;;;11.10;;
59607;SDS011;45426;44.726;10.390;2023-02-15T02:05:16;29.42;;;10.80;;
59607;SDS011;45426;44.726;10.390;2023-02-15T02:07:42;30.40;;;11.02;;
59607;SDS011;45426;44.726;10.390;2023-02-15T02:10:11;32.05;;;9.77;;
59607;SDS011;45426;44.726;10.390;2023-02-15T02:12:38;30.55;;;10.10;;
59607;SDS011;45426;44.726;10.390;2023-02-15T02:15:07;32.55;;;10.65;;
59607;SDS011;45426;44.726;10.390;2023-02-15T02:34:51;27.30;;;8.75;;
59607;SDS011;45426;44.726;10.390;2023-02-15T02:40:52;27.45;;;8.25;;
59607;SDS011;45426;44.726;10.390;2023-02-15T02:45:45;26.65;;;9.35;;
59607;SDS011;45426;44.726;10.390;2023-02-15T02:48:24;26.08;;;8.35;;
59607;SDS011;45426;44.726;10.390;2023-02-15T02:50:53;27.02;;;8.98;;
59607;SDS011;45426;44.726;10.390;2023-02-15T02:53:18;22.48;;;8.07;;
59607;SDS011;45426;44.726;10.390;2023-02-15T02:55:50;24.67;;;7.70;;
59607;SDS011;45426;44.726;10.390;2023-02-15T02:58:55;23.25;;;8.07;;
59607;SDS011;45426;44.726;10.390;2023-02-15T03:01:16;20.17;;;6.95;;
59607;SDS011;45426;44.726;10.390;2023-02-15T03:03:59;23.38;;;8.20;;
59607;SDS011;45426;44.726;10.390;2023-02-15T03:09:15;25.25;;;7.10;;
59607;SDS011;45426;44.726;10.390;2023-02-15T03:11:49;21.63;;;7.82;;
59607;SDS011;45426;44.726;10.390;2023-02-15T03:14:15;22.25;;;7.80;;
59607;SDS011;45426;44.726;10.390;2023-02-15T03:16:43;21.58;;;7.45;;
59607;SDS011;45426;44.726;10.390;2023-02-15T03:19:13;18.77;;;6.38;;
59607;SDS011;45426;44.726;10.390;2023-02-15T03:21:44;19.98;;;7.32;;
59607;SDS011;45426;44.726;10.390;2023-02-15T03:24:31;23.42;;;7.40;;
59607;SDS011;45426;44.726;10.390;2023-02-15T03:27:00;22.30;;;7.13;;
59607;SDS011;45426;44.726;10.390;2023-02-15T03:29:29;21.35;;;6.65;;
59607;SDS011;45426;44.726;10.390;2023-02-15T03:31:58;17.80;;;6.85;;
59607;SDS011;45426;44.726;10.390;2023-02-15T03:34:26;21.77;;;7.82;;
59607;SDS011;45426;44.726;10.390;2023-02-15T03:36:56;18.02;;;6.70;;
59607;SDS011;45426;44.726;10.390;2023-02-15T03:42:26;19.38;;;6.75;;
59607;SDS011;45426;44.726;10.390;2023-02-15T03:47:35;22.42;;;6.60;;
59607;SDS011;45426;44.726;10.390;2023-02-15T03:50:08;18.85;;;6.90;;
59607;SDS011;45426;44.726;10.390;2023-02-15T03:52:56;20.15;;;6.47;;
59607;SDS011;45426;44.726;10.390;2023-02-15T03:55:26;17.02;;;6.93;;
59607;SDS011;45426;44.726;10.390;2023-02-15T03:57:53;18.70;;;6.18;;
59607;SDS011;45426;44.726;10.390;2023-02-15T04:00:37;20.55;;;6.53;;
59607;SDS011;45426;44.726;10.390;2023-02-15T04:03:33;16.20;;;5.75;;
59607;SDS011;45426;44.726;10.390;2023-02-15T04:06:04;14.95;;;5.43;;
59607;SDS011;45426;44.726;10.390;2023-02-15T04:08:30;18.50;;;5.57;;
59607;SDS011;45426;44.726;10.390;2023-02-15T04:11:14;17.90;;;6.18;;
59607;SDS011;45426;44.726;10.390;2023-02-15T04:13:40;17.42;;;5.85;;
59607;SDS011;45426;44.726;10.390;2023-02-15T04:16:06;12.45;;;5.07;;
59607;SDS011;45426;44.726;10.390;2023-02-15T04:18:33;13.80;;;5.32;;
59607;SDS011;45426;44.726;10.390;2023-02-15T04:21:25;16.45;;;5.47;;
59607;SDS011;45426;44.726;10.390;2023-02-15T04:24:10;16.63;;;5.38;;
59607;SDS011;45426;44.726;10.390;2023-02-15T04:26:55;13.55;;;5.32;;
59607;SDS011;45426;44.726;10.390;2023-02-15T04:29:21;16.63;;;5.65;;
59607;SDS011;45426;44.726;10.390;2023-02-15T04:31:48;14.73;;;5.80;;
59607;SDS011;45426;44.726;10.390;2023-02-15T04:34:14;17.20;;;5.57;;
59607;SDS011;45426;44.726;10.390;2023-02-15T04:36:40;12.48;;;4.72;;
59607;SDS011;45426;44.726;10.390;2023-02-15T04:39:06;13.38;;;4.80;;
59607;SDS011;45426;44.726;10.390;2023-02-15T04:41:32;16.75;;;5.13;;
59607;SDS011;45426;44.726;10.390;2023-02-15T04:43:58;14.23;;;5.97;;
59607;SDS011;45426;44.726;10.390;2023-02-15T04:46:25;12.82;;;5.03;;
59607;SDS011;45426;44.726;10.390;2023-02-15T04:48:51;17.48;;;5.57;;
59607;SDS011;45426;44.726;10.390;2023-02-15T04:51:17;20.00;;;6.25;;
59607;SDS011;45426;44.726;10.390;2023-02-15T04:53:42;15.40;;;5.70;;
59607;SDS011;45426;44.726;10.390;2023-02-15T04:56:08;17.33;;;5.63;;
59607;SDS011;45426;44.726;10.390;2023-02-15T04:58:33;15.38;;;5.45;;
59607;SDS011;45426;44.726;10.390;2023-02-15T05:01:00;18.50;;;5.82;;
59607;SDS011;45426;44.726;10.390;2023-02-15T05:03:25;11.75;;;4.20;;
59607;SDS011;45426;44.726;10.390;2023-02-15T05:05:51;15.38;;;5.00;;
59607;SDS011;45426;44.726;10.390;2023-02-15T05:08:16;13.48;;;5.28;;
59607;SDS011;45426;44.726;10.390;2023-02-15T05:10:42;13.30;;;4.82;;
59607;SDS011;45426;44.726;10.390;2023-02-15T05:13:07;14.85;;;5.03;;
59607;SDS011;45426;44.726;10.390;2023-02-15T05:15:33;15.98;;;5.03;;
59607;SDS011;45426;44.726;10.390;2023-02-15T05:17:58;13.40;;;4.57;;
59607;SDS011;45426;44.726;10.390;2023-02-15T05:20:24;13.43;;;5.30;;
59607;SDS011;45426;44.726;10.390;2023-02-15T05:22:53;13.75;;;4.97;;
59607;SDS011;45426;44.726;10.390;2023-02-15T05:25:19;13.00;;;5.15;;
59607;SDS011;45426;44.726;10.390;2023-02-15T05:28:03;15.30;;;5.43;;
59607;SDS011;45426;44.726;10.390;2023-02-15T05:30:44;12.50;;;4.80;;
59607;SDS011;45426;44.726;10.390;2023-02-15T05:33:10;15.02;;;5.00;;
59607;SDS011;45426;44.726;10.390;2023-02-15T05:35:35;15.68;;;5.00;;
59607;SDS011;45426;44.726;10.390;2023-02-15T05:38:00;15.13;;;5.43;;
59607;SDS011;45426;44.726;10.390;2023-02-15T05:40:26;15.57;;;5.20;;
59607;SDS011;45426;44.726;10.390;2023-02-15T05:42:52;12.93;;;4.85;;
59607;SDS011;45426;44.726;10.390;2023-02-15T05:45:17;15.90;;;4.93;;
59607;SDS011;45426;44.726;10.390;2023-02-15T05:47:43;16.73;;;4.30;;
59607;SDS011;45426;44.726;10.390;2023-02-15T05:50:09;12.20;;;4.35;;
59607;SDS011;45426;44.726;10.390;2023-02-15T05:52:36;11.88;;;4.35;;
59607;SDS011;45426;44.726;10.390;2023-02-15T05:55:02;11.27;;;4.05;;
59607;SDS011;45426;44.726;10.390;2023-02-15T05:57:29;11.88;;;4.22;;
59607;SDS011;45426;44.726;10.390;2023-02-15T05:59:55;13.82;;;4.50;;
59607;SDS011;45426;44.726;10.390;2023-02-15T06:02:20;12.20;;;4.43;;
59607;SDS011;45426;44.726;10.390;2023-02-15T06:04:45;12.88;;;4.45;;
59607;SDS011;45426;44.726;10.390;2023-02-15T06:07:11;12.07;;;4.80;;
59607;SDS011;45426;44.726;10.390;2023-02-15T06:09:36;11.68;;;4.22;;
59607;SDS011;45426;44.726;10.390;2023-02-15T06:12:02;12.32;;;4.50;;
59607;SDS011;45426;44.726;10.390;2023-02-15T06:14:27;15.70;;;4.68;;
59607;SDS011;45426;44.726;10.390;2023-02-15T06:16:53;12.35;;;4.13;;
59607;SDS011;45426;44.726;10.390;2023-02-15T06:19:18;14.50;;;4.57;;
59607;SDS011;45426;44.726;10.390;2023-02-15T06:21:44;13.90;;;4.28;;
59607;SDS011;45426;44.726;10.390;2023-02-15T06:24:11;11.73;;;4.22;;
59607;SDS011;45426;44.726;10.390;2023-02-15T06:26:36;15.75;;;4.65;;
59607;SDS011;45426;44.726;10.390;2023-02-15T06:29:02;12.85;;;4.30;;
59607;SDS011;45426;44.726;10.390;2023-02-15T06:31:30;11.90;;;4.35;;
59607;SDS011;45426;44.726;10.390;2023-02-15T06:33:58;11.48;;;4.80;;
59607;SDS011;45426;44.726;10.390;2023-02-15T06:36:27;11.80;;;4.43;;
59607;SDS011;45426;44.726;10.390;2023-02-15T06:38:53;11.88;;;4.47;;
59607;SDS011;45426;44.726;10.390;2023-02-15T06:41:19;12.60;;;4.10;;
59607;SDS011;45426;44.726;10.390;2023-02-15T06:43:45;11.82;;;4.30;;
59607;SDS011;45426;44.726;10.390;2023-02-15T06:46:10;13.05;;;5.07;;
59607;SDS011;45426;44.726;10.390;2023-02-15T06:48:36;13.35;;;4.40;;
59607;SDS011;45426;44.726;10.390;2023-02-15T06:51:02;10.88;;;4.60;;
59607;SDS011;45426;44.726;10.390;2023-02-15T06:53:27;11.52;;;4.43;;
59607;SDS011;45426;44.726;10.390;2023-02-15T06:55:59;14.38;;;4.90;;
59607;SDS011;45426;44.726;10.390;2023-02-15T06:58:26;18.05;;;5.45;;
59607;SDS011;45426;44.726;10.390;2023-02-15T07:00:51;17.50;;;5.68;;
59607;SDS011;45426;44.726;10.390;2023-02-15T07:03:17;17.23;;;5.20;;
59607;SDS011;45426;44.726;10.390;2023-02-15T07:05:42;15.60;;;5.70;;
59607;SDS011;45426;44.726;10.390;2023-02-15T07:08:08;14.30;;;5.43;;
59607;SDS011;45426;44.726;10.390;2023-02-15T07:10:34;16.63;;;5.20;;
59607;SDS011;45426;44.726;10.390;2023-02-15T07:13:01;16.67;;;5.43;;
59607;SDS011;45426;44.726;10.390;2023-02-15T07:15:26;13.32;;;4.70;;
59607;SDS011;45426;44.726;10.390;2023-02-15T07:17:52;14.13;;;5.03;;
59607;SDS011;45426;44.726;10.390;2023-02-15T07:20:18;13.40;;;4.68;;
59607;SDS011;45426;44.726;10.390;2023-02-15T07:22:45;14.43;;;5.32;;
59607;SDS011;45426;44.726;10.390;2023-02-15T07:25:11;15.15;;;5.25;;
59607;SDS011;45426;44.726;10.390;2023-02-15T07:27:37;13.13;;;5.38;;
59607;SDS011;45426;44.726;10.390;2023-02-15T07:30:04;14.95;;;6.00;;
59607;SDS011;45426;44.726;10.390;2023-02-15T07:32:31;13.57;;;5.50;;
59607;SDS011;45426;44.726;10.390;2023-02-15T07:34:57;12.73;;;4.95;;
59607;SDS011;45426;44.726;10.390;2023-02-15T07:37:23;11.05;;;4.95;;
59607;SDS011;45426;44.726;10.390;2023-02-15T07:39:49;14.93;;;4.95;;
59607;SDS011;45426;44.726;10.390;2023-02-15T07:42:15;12.65;;;5.30;;
59607;SDS011;45426;44.726;10.390;2023-02-15T07:44:40;13.10;;;5.05;;
59607;SDS011;45426;44.726;10.390;2023-02-15T07:47:06;12.80;;;5.13;;
59607;SDS011;45426;44.726;10.390;2023-02-15T07:49:31;14.20;;;5.05;;
59607;SDS011;45426;44.726;10.390;2023-02-15T07:52:00;15.68;;;5.78;;
59607;SDS011;45426;44.726;10.390;2023-02-15T07:54:26;13.30;;;5.80;;
59607;SDS011;45426;44.726;10.390;2023-02-15T07:56:52;16.40;;;5.63;;
59607;SDS011;45426;44.726;10.390;2023-02-15T07:59:17;13.48;;;5.10;;
59607;SDS011;45426;44.726;10.390;2023-02-15T08:01:45;13.90;;;5.45;;
59607;SDS011;45426;44.726;10.390;2023-02-15T08:04:10;12.25;;;4.97;;
59607;SDS011;45426;44.726;10.390;2023-02-15T08:06:36;16.90;;;5.35;;
59607;SDS011;45426;44.726;10.390;2023-02-15T08:09:06;10.73;;;4.93;;
59607;SDS011;45426;44.726;10.390;2023-02-15T08:11:34;12.45;;;5.00;;
59607;SDS011;45426;44.726;10.390;2023-02-15T08:14:08;16.63;;;5.25;;
59607;SDS011;45426;44.726;10.390;2023-02-15T08:16:38;13.55;;;5.13;;
59607;SDS011;45426;44.726;10.390;2023-02-15T08:21:50;13.95;;;5.07;;
59607;SDS011;45426;44.726;10.390;2023-02-15T08:24:19;13.38;;;5.38;;
59607;SDS011;45426;44.726;10.390;2023-02-15T08:26:46;16.35;;;6.82;;
59607;SDS011;45426;44.726;10.390;2023-02-15T08:29:13;16.85;;;5.97;;
59607;SDS011;45426;44.726;10.390;2023-02-15T08:31:43;14.25;;;6.00;;
59607;SDS011;45426;44.726;10.390;2023-02-15T08:34:09;15.40;;;6.32;;
59607;SDS011;45426;44.726;10.390;2023-02-15T08:36:36;17.55;;;6.13;;
59607;SDS011;45426;44.726;10.390;2023-02-15T08:39:02;19.80;;;7.50;;
59607;SDS011;45426;44.726;10.390;2023-02-15T08:41:30;17.13;;;7.55;;
59607;SDS011;45426;44.726;10.390;2023-02-15T08:43:58;18.60;;;7.75;;
59607;SDS011;45426;44.726;10.390;2023-02-15T08:46:27;18.60;;;8.32;;
59607;SDS011;45426;44.726;10.390;2023-02-15T08:48:54;18.58;;;8.30;;
59607;SDS011;45426;44.726;10.390;2023-02-15T08:51:25;20.02;;;8.73;;
59607;SDS011;45426;44.726;10.390;2023-02-15T08:53:53;20.20;;;8.48;;
59607;SDS011;45426;44.726;10.390;2023-02-15T08:56:25;16.75;;;7.65;;
59607;SDS011;45426;44.726;10.390;2023-02-15T08:58:55;20.67;;;9.00;;
59607;SDS011;45426;44.726;10.390;2023-02-15T09:01:22;18.17;;;8.00;;
59607;SDS011;45426;44.726;10.390;2023-02-15T09:03:54;18.70;;;8.57;;
59607;SDS011;45426;44.726;10.390;2023-02-15T09:06:22;20.60;;;8.82;;
59607;SDS011;45426;44.726;10.390;2023-02-15T09:08:48;17.90;;;7.65;;
59607;SDS011;45426;44.726;10.390;2023-02-15T09:11:16;20.27;;;8.18;;
59607;SDS011;45426;44.726;10.390;2023-02-15T09:13:51;20.13;;;8.35;;
59607;SDS011;45426;44.726;10.390;2023-02-15T09:16:19;21.17;;;8.43;;
59607;SDS011;45426;44.726;10.390;2023-02-15T09:18:46;18.20;;;7.88;;
59607;SDS011;45426;44.726;10.390;2023-02-15T09:21:14;25.75;;;11.00;;
59607;SDS011;45426;44.726;10.390;2023-02-15T09:23:43;25.08;;;10.95;;
59607;SDS011;45426;44.726;10.390;2023-02-15T09:26:12;27.48;;;12.15;;
59607;SDS011;45426;44.726;10.390;2023-02-15T09:28:39;29.80;;;13.07;;
59607;SDS011;45426;44.726;10.390;2023-02-15T09:33:38;40.63;;;18.85;;
59607;SDS011;45426;44.726;10.390;2023-02-15T09:36:05;46.58;;;20.90;;
59607;SDS011;45426;44.726;10.390;2023-02-15T09:38:38;41.22;;;19.67;;
59607;SDS011;45426;44.726;10.390;2023-02-15T09:41:11;48.30;;;21.90;;
59607;SDS011;45426;44.726;10.390;2023-02-15T09:58:38;41.40;;;19.77;;
59607;SDS011;45426;44.726;10.390;2023-02-15T10:04:21;40.80;;;20.17;;
59607;SDS011;45426;44.726;10.390;2023-02-15T10:07:30;39.70;;;19.33;;
59607;SDS011;45426;44.726;10.390;2023-02-15T10:20:55;40.45;;;20.85;;
59607;SDS011;45426;44.726;10.390;2023-02-15T10:29:47;44.22;;;21.67;;
59607;SDS011;45426;44.726;10.390;2023-02-15T10:31:49;48.22;;;22.15;;
59607;SDS011;45426;44.726;10.390;2023-02-15T10:34:33;42.78;;;22.27;;
59607;SDS011;45426;44.726;10.390;2023-02-15T10:50:15;47.30;;;23.40;;
59607;SDS011;45426;44.726;10.390;2023-02-15T10:53:00;53.05;;;25.17;;
59607;SDS011;45426;44.726;10.390;2023-02-15T11:01:37;54.58;;;24.35;;
59607;SDS011;45426;44.726;10.390;2023-02-15T11:06:56;53.38;;;24.33;;
59607;SDS011;45426;44.726;10.390;2023-02-15T11:09:36;53.45;;;23.65;;
59607;SDS011;45426;44.726;10.390;2023-02-15T11:12:08;53.22;;;24.77;;
59607;SDS011;45426;44.726;10.390;2023-02-15T11:14:39;55.42;;;24.33;;
59607;SDS011;45426;44.726;10.390;2023-02-15T11:19:50;56.47;;;24.50;;
59607;SDS011;45426;44.726;10.390;2023-02-15T11:22:16;52.65;;;24.17;;
59607;SDS011;45426;44.726;10.390;2023-02-15T11:24:45;54.65;;;24.98;;
59607;SDS011;45426;44.726;10.390;2023-02-15T11:32:34;56.65;;;24.17;;
59607;SDS011;45426;44.726;10.390;2023-02-15T11:35:05;60.03;;;25.00;;
59607;SDS011;45426;44.726;10.390;2023-02-15T11:37:54;56.55;;;24.35;;
59607;SDS011;45426;44.726;10.390;2023-02-15T11:40:32;58.35;;;25.23;;
59607;SDS011;45426;44.726;10.390;2023-02-15T11:43:02;59.00;;;25.58;;
59607;SDS011;45426;44.726;10.390;2023-02-15T11:45:51;57.47;;;24.98;;
59607;SDS011;45426;44.726;10.390;2023-02-15T11:48:17;59.47;;;25.02;;
59607;SDS011;45426;44.726;10.390;2023-02-15T11:50:42;58.40;;;24.95;;
59607;SDS011;45426;44.726;10.390;2023-02-15T11:53:11;61.55;;;24.38;;
59607;SDS011;45426;44.726;10.390;2023-02-15T11:55:39;57.55;;;23.35;;
59607;SDS011;45426;44.726;10.390;2023-02-15T11:58:21;58.30;;;23.17;;
59607;SDS011;45426;44.726;10.390;2023-02-15T12:01:37;60.90;;;23.40;;
59607;SDS011;45426;44.726;10.390;2023-02-15T12:06:58;63.00;;;24.73;;
59607;SDS011;45426;44.726;10.390;2023-02-15T12:09:33;55.08;;;23.20;;
59607;SDS011;45426;44.726;10.390;2023-02-15T12:12:24;54.22;;;23.30;;
59607;SDS011;45426;44.726;10.390;2023-02-15T12:14:55;54.72;;;23.17;;
59607;SDS011;45426;44.726;10.390;2023-02-15T12:17:23;61.40;;;22.92;;
59607;SDS011;45426;44.726;10.390;2023-02-15T12:22:54;54.15;;;22.77;;
59607;SDS011;45426;44.726;10.390;2023-02-15T12:28:15;56.35;;;22.42;;
59607;SDS011;45426;44.726;10.390;2023-02-15T12:30:45;55.90;;;22.13;;
59607;SDS011;45426;44.726;10.390;2023-02-15T12:33:44;53.13;;;21.15;;
59607;SDS011;45426;44.726;10.390;2023-02-15T12:36:12;53.45;;;22.08;;
59607;SDS011;45426;44.726;10.390;2023-02-15T12:38:43;52.55;;;21.40;;
59607;SDS011;45426;44.726;10.390;2023-02-15T12:41:31;49.03;;;20.50;;
59607;SDS011;45426;44.726;10.390;2023-02-15T12:44:03;48.40;;;18.48;;
59607;SDS011;45426;44.726;10.390;2023-02-15T12:47:05;45.75;;;17.52;;
59607;SDS011;45426;44.726;10.390;2023-02-15T12:49:42;48.03;;;18.70;;
59607;SDS011;45426;44.726;10.390;2023-02-15T12:54:43;49.13;;;19.00;;
59607;SDS011;45426;44.726;10.390;2023-02-15T12:57:21;51.90;;;20.08;;
59607;SDS011;45426;44.726;10.390;2023-02-15T13:02:29;48.72;;;18.58;;
59607;SDS011;45426;44.726;10.390;2023-02-15T13:05:16;46.83;;;19.42;;
59607;SDS011;45426;44.726;10.390;2023-02-15T13:07:56;48.88;;;19.33;;
59607;SDS011;45426;44.726;10.390;2023-02-15T13:10:25;47.50;;;18.58;;
59607;SDS011;45426;44.726;10.390;2023-02-15T13:12:54;47.60;;;19.08;;
59607;SDS011;45426;44.726;10.390;2023-02-15T13:15:44;49.70;;;19.45;;
59607;SDS011;45426;44.726;10.390;2023-02-15T13:18:16;45.60;;;17.50;;
59607;SDS011;45426;44.726;10.390;2023-02-15T13:20:47;45.38;;;18.52;;
59607;SDS011;45426;44.726;10.390;2023-02-15T13:23:34;50.05;;;17.55;;
59607;SDS011;45426;44.726;10.390;2023-02-15T13:25:59;45.70;;;17.52;;
59607;SDS011;45426;44.726;10.390;2023-02-15T13:28:37;46.03;;;17.60;;
59607;SDS011;45426;44.726;10.390;2023-02-15T13:31:11;46.42;;;17.40;;
59607;SDS011;45426;44.726;10.390;2023-02-15T13:33:38;46.00;;;17.38;;
59607;SDS011;45426;44.726;10.390;2023-02-15T13:36:21;46.15;;;18.08;;
59607;SDS011;45426;44.726;10.390;2023-02-15T13:41:33;45.10;;;16.88;;
59607;SDS011;45426;44.726;10.390;2023-02-15T13:44:15;47.03;;;17.13;;
59607;SDS011;45426;44.726;10.390;2023-02-15T13:49:57;43.33;;;17.33;;
59607;SDS011;45426;44.726;10.390;2023-02-15T13:52:33;45.70;;;17.10;;
59607;SDS011;45426;44.726;10.390;2023-02-15T14:11:44;44.30;;;16.92;;
59607;SDS011;45426;44.726;10.390;2023-02-15T14:14:39;48.20;;;16.73;;
59607;SDS011;45426;44.726;10.390;2023-02-15T14:20:21;42.33;;;16.73;;
59607;SDS011;45426;44.726;10.390;2023-02-15T14:28:13;40.22;;;16.17;;
59607;SDS011;45426;44.726;10.390;2023-02-15T14:30:49;46.05;;;18.50;;
59607;SDS011;45426;44.726;10.390;2023-02-15T14:35:53;38.88;;;15.82;;
59607;SDS011;45426;44.726;10.390;2023-02-15T14:49:30;40.85;;;16.13;;
59607;SDS011;45426;44.726;10.390;2023-02-15T14:52:07;44.60;;;16.70;;
59607;SDS011;45426;44.726;10.390;2023-02-15T15:02:15;47.28;;;16.58;;
59607;SDS011;45426;44.726;10.390;2023-02-15T15:04:53;50.92;;;17.38;;
59607;SDS011;45426;44.726;10.390;2023-02-15T15:07:21;42.15;;;16.63;;
59607;SDS011;45426;44.726;10.390;2023-02-15T15:12:43;47.70;;;15.90;;
59607;SDS011;45426;44.726;10.390;2023-02-15T15:15:15;44.50;;;16.73;;
59607;SDS011;45426;44.726;10.390;2023-02-15T15:29:07;41.58;;;15.50;;
59607;SDS011;45426;44.726;10.390;2023-02-15T15:50:29;48.05;;;18.33;;
59607;SDS011;45426;44.726;10.390;2023-02-15T15:52:57;48.55;;;18.23;;
59607;SDS011;45426;44.726;10.390;2023-02-15T15:55:25;50.65;;;18.60;;
59607;SDS011;45426;44.726;10.390;2023-02-15T15:57:58;49.08;;;17.85;;
59607;SDS011;45426;44.726;10.390;2023-02-15T16:03:12;49.58;;;18.80;;
59607;SDS011;45426;44.726;10.390;2023-02-15T16:05:39;53.03;;;18.92;;
59607;SDS011;45426;44.726;10.390;2023-02-15T16:08:05;53.53;;;19.15;;
59607;SDS011;45426;44.726;10.390;2023-02-15T16:10:31;53.17;;;19.02;;
59607;SDS011;45426;44.726;10.390;2023-02-15T16:12:59;48.13;;;18.52;;
59607;SDS011;45426;44.726;10.390;2023-02-15T16:15:30;54.90;;;19.25;;
59607;SDS011;45426;44.726;10.390;2023-02-15T16:18:10;54.92;;;19.83;;
59607;SDS011;45426;44.726;10.390;2023-02-15T16:20:40;51.40;;;18.85;;
59607;SDS011;45426;44.726;10.390;2023-02-15T16:23:16;53.58;;;19.55;;
59607;SDS011;45426;44.726;10.390;2023-02-15T16:28:59;55.45;;;20.02;;
59607;SDS011;45426;44.726;10.390;2023-02-15T16:31:26;53.85;;;20.33;;
59607;SDS011;45426;44.726;10.390;2023-02-15T16:33:52;52.45;;;19.65;;
59607;SDS011;45426;44.726;10.390;2023-02-15T16:36:24;55.17;;;21.23;;
59607;SDS011;45426;44.726;10.390;2023-02-15T16:41:17;54.75;;;20.30;;
59607;SDS011;45426;44.726;10.390;2023-02-15T16:43:49;49.60;;;20.15;;
59607;SDS011;45426;44.726;10.390;2023-02-15T16:46:17;48.47;;;18.13;;
59607;SDS011;45426;44.726;10.390;2023-02-15T16:48:49;50.75;;;18.30;;
59607;SDS011;45426;44.726;10.390;2023-02-15T16:51:20;49.75;;;17.25;;
59607;SDS011;45426;44.726;10.390;2023-02-15T16:53:48;51.65;;;18.85;;
59607;SDS011;45426;44.726;10.390;2023-02-15T16:56:14;49.97;;;18.63;;
59607;SDS011;45426;44.726;10.390;2023-02-15T16:58:41;47.50;;;18.58;;
59607;SDS011;45426;44.726;10.390;2023-02-15T17:01:10;55.47;;;19.67;;
59607;SDS011;45426;44.726;10.390;2023-02-15T17:03:38;48.63;;;18.13;;
59607;SDS011;45426;44.726;10.390;2023-02-15T17:06:16;48.10;;;17.38;;
59607;SDS011;45426;44.726;10.390;2023-02-15T17:08:48;45.85;;;17.90;;
59607;SDS011;45426;44.726;10.390;2023-02-15T17:11:17;52.03;;;18.30;;
59607;SDS011;45426;44.726;10.390;2023-02-15T17:16:32;51.75;;;17.10;;
59607;SDS011;45426;44.726;10.390;2023-02-15T17:19:02;46.42;;;18.10;;
59607;SDS011;45426;44.726;10.390;2023-02-15T17:21:39;55.13;;;19.08;;
59607;SDS011;45426;44.726;10.390;2023-02-15T17:24:13;48.38;;;17.50;;
59607;SDS011;45426;44.726;10.390;2023-02-15T17:26:42;46.95;;;17.15;;
59607;SDS011;45426;44.726;10.390;2023-02-15T17:29:20;48.55;;;17.48;;
59607;SDS011;45426;44.726;10.390;2023-02-15T17:31:51;56.25;;;18.77;;
59607;SDS011;45426;44.726;10.390;2023-02-15T17:34:41;64.45;;;28.90;;
59607;SDS011;45426;44.726;10.390;2023-02-15T17:37:22;56.33;;;22.08;;
59607;SDS011;45426;44.726;10.390;2023-02-15T17:39:48;47.25;;;18.30;;
59607;SDS011;45426;44.726;10.390;2023-02-15T17:42:14;51.45;;;18.58;;
59607;SDS011;45426;44.726;10.390;2023-02-15T17:44:39;50.80;;;19.58;;
59607;SDS011;45426;44.726;10.390;2023-02-15T17:47:05;54.78;;;19.80;;
59607;SDS011;45426;44.726;10.390;2023-02-15T17:49:30;56.70;;;20.15;;
59607;SDS011;45426;44.726;10.390;2023-02-15T17:51:59;53.42;;;19.17;;
59607;SDS011;45426;44.726;10.390;2023-02-15T17:54:29;52.47;;;20.98;;
59607;SDS011;45426;44.726;10.390;2023-02-15T17:57:14;54.38;;;20.35;;
59607;SDS011;45426;44.726;10.390;2023-02-15T17:59:40;53.55;;;19.70;;
59607;SDS011;45426;44.726;10.390;2023-02-15T18:02:33;55.13;;;20.95;;
59607;SDS011;45426;44.726;10.390;2023-02-15T18:05:18;58.47;;;20.02;;
59607;SDS011;45426;44.726;10.390;2023-02-15T18:08:04;61.88;;;21.55;;
59607;SDS011;45426;44.726;10.390;2023-02-15T18:10:53;55.50;;;19.70;;